createdAt,value
2022-10-26T00:01:22.765Z,11.79
2022-10-26T00:03:51.123Z,11.56
2022-10-26T00:06:22.161Z,11.50
2022-10-26T00:08:52.199Z,11.75
2022-10-26T00:11:20.258Z,11.64
2022-10-26T00:13:49.172Z,11.49
2022-10-26T00:16:28.116Z,11.69
2022-10-26T00:18:56.268Z,11.66
2022-10-26T00:21:24.304Z,11.63
2022-10-26T00:23:52.469Z,11.64
2022-10-26T00:26:20.353Z,11.59
2022-10-26T00:28:49.002Z,11.62
2022-10-26T00:31:17.912Z,11.34
2022-10-26T00:33:46.115Z,11.33
2022-10-26T00:36:16.949Z,11.56
2022-10-26T00:38:53.834Z,11.26
2022-10-26T00:41:32.369Z,11.51
2022-10-26T00:44:01.367Z,11.06
2022-10-26T00:46:38.017Z,11.42
2022-10-26T00:49:14.599Z,11.29
2022-10-26T00:51:55.671Z,11.04
2022-10-26T00:54:23.948Z,11.22
2022-10-26T00:56:54.960Z,11.14
2022-10-26T00:59:24.337Z,10.92
2022-10-26T01:01:53.529Z,11.12
2022-10-26T01:04:21.814Z,11.21
2022-10-26T01:06:52.075Z,11.31
2022-10-26T01:09:21.892Z,11.16
2022-10-26T01:11:49.803Z,11.34
2022-10-26T01:14:20.094Z,11.42
2022-10-26T01:17:09.468Z,11.46
2022-10-26T01:20:21.604Z,11.46
2022-10-26T01:22:59.848Z,11.43
2022-10-26T01:25:49.499Z,11.39
2022-10-26T01:29:07.491Z,11.45
2022-10-26T01:31:49.693Z,11.46
2022-10-26T01:34:34.968Z,11.44
2022-10-26T01:37:22.495Z,10.98
2022-10-26T01:40:00.374Z,11.11
2022-10-26T01:42:31.155Z,11.29
2022-10-26T01:45:07.398Z,11.19
2022-10-26T01:47:38.245Z,11.21
2022-10-26T01:50:08.905Z,11.17
2022-10-26T01:52:37.146Z,11.11
2022-10-26T01:55:43.068Z,11.10
2022-10-26T01:58:41.543Z,11.12
2022-10-26T02:01:52.323Z,11.13
2022-10-26T02:04:47.182Z,10.98
2022-10-26T02:07:53.841Z,11.10
2022-10-26T02:10:45.529Z,11.04
2022-10-26T02:13:26.153Z,10.88
2022-10-26T02:16:18.922Z,10.77
2022-10-26T02:19:05.859Z,10.81
2022-10-26T02:21:42.102Z,10.80
2022-10-26T02:24:14.496Z,10.69
2022-10-26T02:26:46.590Z,10.56
2022-10-26T02:29:19.021Z,10.80
2022-10-26T02:31:50.274Z,10.90
2022-10-26T02:34:25.965Z,10.87
2022-10-26T02:36:57.703Z,10.86
2022-10-26T02:39:26.654Z,10.85
2022-10-26T02:41:56.818Z,10.80
2022-10-26T02:44:33.606Z,10.77
2022-10-26T02:47:02.269Z,10.88
2022-10-26T02:49:30.506Z,10.75
2022-10-26T02:52:23.144Z,10.83
2022-10-26T02:55:27.580Z,10.87
2022-10-26T02:58:02.489Z,10.90
2022-10-26T03:00:31.276Z,10.84
2022-10-26T03:03:03.870Z,10.90
2022-10-26T03:05:33.270Z,10.78
2022-10-26T03:08:01.934Z,10.82
2022-10-26T03:10:30.813Z,10.69
2022-10-26T03:12:58.583Z,10.67
2022-10-26T03:15:26.525Z,10.91
2022-10-26T03:17:54.528Z,10.89
2022-10-26T03:20:22.705Z,10.89
2022-10-26T03:22:50.645Z,10.91
2022-10-26T03:25:18.616Z,10.91
2022-10-26T03:27:47.726Z,10.65
2022-10-26T03:30:16.572Z,10.91
2022-10-26T03:32:44.681Z,10.88
2022-10-26T03:35:12.515Z,10.85
2022-10-26T03:37:40.578Z,10.86
2022-10-26T03:40:09.765Z,10.87
2022-10-26T03:42:38.406Z,10.88
2022-10-26T03:45:08.306Z,10.85
2022-10-26T03:47:46.108Z,10.85
2022-10-26T03:50:17.608Z,10.83
2022-10-26T03:52:47.276Z,10.83
2022-10-26T03:55:15.689Z,10.80
2022-10-26T03:57:45.321Z,10.98
2022-10-26T04:00:17.500Z,10.91
2022-10-26T04:02:53.888Z,10.78
2022-10-26T04:05:22.380Z,11.03
2022-10-26T04:07:55.572Z,10.99
2022-10-26T04:10:27.741Z,10.70
2022-10-26T04:12:57.410Z,10.92
2022-10-26T04:15:25.637Z,10.82
2022-10-26T04:18:02.031Z,10.68
2022-10-26T04:20:33.597Z,10.93
2022-10-26T04:23:07.481Z,10.91
2022-10-26T04:25:35.421Z,10.68
2022-10-26T04:28:06.489Z,10.80
2022-10-26T04:30:36.106Z,10.89
2022-10-26T04:33:06.573Z,10.68
2022-10-26T04:35:34.625Z,10.90
2022-10-26T04:38:06.031Z,10.87
2022-10-26T04:40:35.341Z,10.82
2022-10-26T04:43:03.277Z,10.61
2022-10-26T04:45:31.607Z,10.63
2022-10-26T04:48:08.319Z,10.64
2022-10-26T04:50:37.210Z,10.63
2022-10-26T04:53:09.512Z,10.92
2022-10-26T04:55:37.644Z,10.90
2022-10-26T04:58:06.145Z,10.92
2022-10-26T05:00:35.216Z,10.91
2022-10-26T05:03:05.744Z,10.92
2022-10-26T05:05:36.404Z,10.87
2022-10-26T05:08:05.065Z,10.95
2022-10-26T05:10:34.901Z,10.91
2022-10-26T05:13:04.632Z,10.92
2022-10-26T05:15:32.650Z,10.76
2022-10-26T05:18:03.534Z,10.95
2022-10-26T05:20:34.220Z,10.95
2022-10-26T05:23:05.985Z,10.97
2022-10-26T05:25:37.355Z,10.99
2022-10-26T05:28:15.068Z,11.00
2022-10-26T05:30:45.353Z,11.03
2022-10-26T05:33:15.674Z,11.03
2022-10-26T05:35:43.792Z,10.91
2022-10-26T05:38:17.550Z,11.02
2022-10-26T05:40:54.133Z,10.93
2022-10-26T05:43:27.438Z,11.01
2022-10-26T05:45:55.390Z,10.72
2022-10-26T05:48:23.457Z,10.78
2022-10-26T05:50:51.918Z,10.95
2022-10-26T05:53:20.215Z,10.93
2022-10-26T05:55:48.488Z,10.92
2022-10-26T05:58:16.981Z,10.71
2022-10-26T06:01:24.034Z,10.92
2022-10-26T06:04:48.219Z,10.90
2022-10-26T06:07:22.112Z,10.65
2022-10-26T06:09:50.854Z,10.92
2022-10-26T06:12:19.991Z,10.71
2022-10-26T06:14:48.494Z,10.88
2022-10-26T06:18:01.458Z,10.67
2022-10-26T06:20:36.495Z,10.86
2022-10-26T06:23:32.179Z,10.90
2022-10-26T06:26:30.696Z,10.84
2022-10-26T06:29:32.274Z,10.85
2022-10-26T06:32:00.153Z,10.73
2022-10-26T06:34:37.257Z,10.89
2022-10-26T06:37:05.554Z,10.83
2022-10-26T06:39:44.469Z,10.84
2022-10-26T06:42:12.968Z,10.95
2022-10-26T06:44:41.844Z,10.88
2022-10-26T06:47:27.684Z,10.59
2022-10-26T06:50:38.695Z,11.12
2022-10-26T06:53:44.244Z,11.10
2022-10-26T06:56:13.983Z,11.09
2022-10-26T06:58:45.100Z,11.16
2022-10-26T07:01:13.816Z,10.76
2022-10-26T07:03:41.828Z,11.21
2022-10-26T07:06:10.277Z,11.20
2022-10-26T07:08:39.324Z,10.95
2022-10-26T07:11:09.429Z,11.24
2022-10-26T07:13:44.761Z,11.14
2022-10-26T07:16:12.780Z,11.27
2022-10-26T07:18:40.785Z,11.11
2022-10-26T07:21:14.064Z,11.27
2022-10-26T07:23:42.230Z,11.13
2022-10-26T07:26:10.070Z,11.19
2022-10-26T07:28:38.262Z,11.19
2022-10-26T07:31:06.255Z,11.18
2022-10-26T07:33:36.887Z,11.13
2022-10-26T07:36:11.102Z,11.07
2022-10-26T07:38:39.676Z,10.30
2022-10-26T07:41:08.267Z,10.81
2022-10-26T07:43:36.206Z,11.15
2022-10-26T07:46:04.499Z,11.18
2022-10-26T07:48:34.401Z,11.31
2022-10-26T07:51:03.338Z,11.35
2022-10-26T07:53:32.268Z,11.22
2022-10-26T07:56:00.220Z,11.28
2022-10-26T07:58:28.455Z,11.27
2022-10-26T08:00:57.129Z,11.41
2022-10-26T08:03:25.189Z,11.38
2022-10-26T08:05:56.228Z,11.45
2022-10-26T08:08:24.388Z,11.52
2022-10-26T08:10:53.752Z,11.56
2022-10-26T08:13:21.954Z,11.15
2022-10-26T08:15:50.159Z,11.20
2022-10-26T08:18:18.019Z,11.25
2022-10-26T08:20:46.279Z,11.60
2022-10-26T08:23:14.824Z,11.41
2022-10-26T08:25:42.841Z,11.74
2022-10-26T08:28:10.970Z,11.89
2022-10-26T08:30:38.935Z,11.69
2022-10-26T08:33:08.574Z,12.12
2022-10-26T08:35:36.676Z,12.21
2022-10-26T08:38:04.536Z,11.83
2022-10-26T08:40:43.174Z,12.46
2022-10-26T08:43:29.512Z,12.48
2022-10-26T08:46:05.136Z,12.44
2022-10-26T08:48:40.991Z,12.53
2022-10-26T08:51:27.940Z,12.47
2022-10-26T08:54:41.022Z,12.51
2022-10-26T08:57:35.883Z,12.13
2022-10-26T09:00:11.188Z,12.55
2022-10-26T09:02:39.495Z,12.60
2022-10-26T09:05:17.424Z,12.27
2022-10-26T09:08:18.005Z,12.47
2022-10-26T09:11:10.863Z,12.45
2022-10-26T09:13:55.157Z,12.13
2022-10-26T09:16:55.695Z,12.34
2022-10-26T09:19:50.945Z,12.31
2022-10-26T09:22:38.696Z,12.29
2022-10-26T09:25:24.944Z,12.03
2022-10-26T09:28:01.686Z,12.31
2022-10-26T09:30:31.428Z,12.37
2022-10-26T09:33:25.049Z,12.16
2022-10-26T09:36:21.345Z,12.26
2022-10-26T09:39:10.855Z,12.33
2022-10-26T09:41:59.705Z,12.11
2022-10-26T09:45:18.211Z,12.27
2022-10-26T09:47:52.976Z,12.37
2022-10-26T09:50:31.331Z,12.45
2022-10-26T09:52:59.433Z,12.51
2022-10-26T09:55:27.990Z,12.25
2022-10-26T09:58:01.458Z,12.59
2022-10-26T10:00:30.843Z,12.60
2022-10-26T10:02:59.262Z,12.44
2022-10-26T10:05:52.491Z,12.45
2022-10-26T10:08:24.015Z,12.01
2022-10-26T10:11:13.786Z,12.33
2022-10-26T10:13:46.719Z,12.70
2022-10-26T10:16:24.508Z,12.37
2022-10-26T10:18:59.538Z,12.80
2022-10-26T10:21:59.414Z,12.79
2022-10-26T10:24:30.998Z,12.62
2022-10-26T10:27:17.500Z,12.37
2022-10-26T10:29:59.718Z,12.66
2022-10-26T10:32:35.850Z,12.23
2022-10-26T10:35:29.306Z,12.71
2022-10-26T10:37:57.976Z,12.82
2022-10-26T10:40:31.345Z,13.03
2022-10-26T10:43:14.162Z,13.04
2022-10-26T10:45:55.822Z,12.68
2022-10-26T10:48:31.642Z,12.83
2022-10-26T10:51:11.095Z,13.09
2022-10-26T10:53:54.320Z,12.73
2022-10-26T10:56:47.626Z,13.16
2022-10-26T10:59:45.141Z,13.06
2022-10-26T11:02:30.588Z,12.87
2022-10-26T11:05:24.768Z,12.82
2022-10-26T11:08:09.157Z,13.32
2022-10-26T11:10:40.452Z,13.34
2022-10-26T11:13:54.468Z,13.13
2022-10-26T11:16:39.413Z,12.98
2022-10-26T11:19:23.644Z,13.09
2022-10-26T11:21:56.496Z,13.21
2022-10-26T11:24:56.593Z,13.18
2022-10-26T11:28:11.589Z,13.28
2022-10-26T11:30:48.730Z,13.28
2022-10-26T11:33:31.360Z,13.28
2022-10-26T11:36:11.337Z,13.37
2022-10-26T11:39:15.981Z,13.69
2022-10-26T11:41:51.423Z,13.88
2022-10-26T11:44:52.706Z,13.52
2022-10-26T11:47:35.724Z,14.12
2022-10-26T11:50:26.057Z,14.36
2022-10-26T11:53:17.826Z,14.48
2022-10-26T11:55:54.582Z,15.02
2022-10-26T11:58:28.690Z,14.72
2022-10-26T12:01:04.810Z,15.30
2022-10-26T12:03:48.940Z,15.25
2022-10-26T12:06:25.710Z,15.60
2022-10-26T12:09:13.396Z,15.66
2022-10-26T12:11:57.133Z,15.84
2022-10-26T12:14:49.627Z,15.95
2022-10-26T12:17:35.075Z,16.14
2022-10-26T12:20:31.118Z,16.50
2022-10-26T12:22:59.513Z,16.11
2022-10-26T12:25:27.742Z,16.54
2022-10-26T12:27:58.548Z,16.31
2022-10-26T12:30:32.721Z,16.57
2022-10-26T12:33:29.562Z,15.45
2022-10-26T12:35:57.831Z,15.22
2022-10-26T12:38:29.071Z,15.77
2022-10-26T12:41:20.073Z,16.19
2022-10-26T12:43:48.582Z,16.30
2022-10-26T12:46:16.350Z,16.53
2022-10-26T12:48:50.820Z,16.13
2022-10-26T12:51:27.472Z,15.75
2022-10-26T12:54:04.189Z,16.06
2022-10-26T12:57:10.529Z,16.42
2022-10-26T13:00:00.212Z,16.26
2022-10-26T13:03:00.675Z,16.58
2022-10-26T13:06:09.049Z,16.43
2022-10-26T13:08:57.730Z,16.45
2022-10-26T13:11:35.455Z,16.46
2022-10-26T13:14:07.643Z,16.29
2022-10-26T13:16:35.950Z,16.37
2022-10-26T13:19:03.907Z,16.45
2022-10-26T13:21:45.782Z,16.21
2022-10-26T13:24:15.074Z,16.57
2022-10-26T13:27:34.049Z,16.33
2022-10-26T13:30:04.752Z,16.47
2022-10-26T13:32:48.922Z,16.15
2022-10-26T13:35:18.353Z,16.38
2022-10-26T13:37:50.591Z,16.30
2022-10-26T13:40:30.011Z,15.81
2022-10-26T13:43:03.795Z,14.98
2022-10-26T13:45:54.982Z,15.38
2022-10-26T13:48:41.671Z,15.25
2022-10-26T13:51:25.969Z,15.13
2022-10-26T13:54:18.985Z,15.48
2022-10-26T13:57:17.166Z,15.57
2022-10-26T13:59:46.879Z,15.08
2022-10-26T14:02:30.825Z,15.18
2022-10-26T14:05:05.576Z,15.01
2022-10-26T14:07:56.835Z,15.14
2022-10-26T14:10:39.549Z,14.93
2022-10-26T14:13:09.180Z,15.02
2022-10-26T14:15:37.106Z,15.03
2022-10-26T14:18:05.649Z,14.69
2022-10-26T14:20:33.616Z,14.51
2022-10-26T14:23:01.608Z,14.79
2022-10-26T14:25:42.181Z,14.75
2022-10-26T14:28:25.946Z,14.76
2022-10-26T14:30:54.393Z,14.84
2022-10-26T14:33:29.385Z,14.70
2022-10-26T14:35:57.923Z,14.72
2022-10-26T14:38:32.681Z,14.62
2022-10-26T14:41:00.714Z,14.54
2022-10-26T14:43:28.777Z,14.66
2022-10-26T14:45:57.515Z,14.57
2022-10-26T14:48:35.929Z,14.35
2022-10-26T14:51:34.407Z,14.20
2022-10-26T14:54:04.519Z,14.31
2022-10-26T14:56:41.294Z,14.17
2022-10-26T14:59:28.668Z,14.08
2022-10-26T15:02:17.227Z,13.92
2022-10-26T15:05:04.014Z,13.73
2022-10-26T15:07:39.950Z,13.30
2022-10-26T15:10:37.115Z,13.23
2022-10-26T15:13:29.607Z,13.14
2022-10-26T15:16:23.295Z,12.55
2022-10-26T15:18:58.999Z,12.84
2022-10-26T15:21:37.568Z,12.71
2022-10-26T15:24:38.458Z,12.50
2022-10-26T15:27:17.032Z,12.31
2022-10-26T15:29:49.470Z,11.90
2022-10-26T15:32:20.993Z,11.92
2022-10-26T15:35:27.897Z,11.92
2022-10-26T15:37:57.805Z,11.76
2022-10-26T15:40:27.466Z,11.66
2022-10-26T15:42:58.311Z,11.57
2022-10-26T15:45:34.253Z,11.46
2022-10-26T15:48:25.755Z,11.09
2022-10-26T15:50:54.064Z,11.23
2022-10-26T15:53:30.664Z,10.86
2022-10-26T15:56:00.546Z,10.80
2022-10-26T15:58:31.529Z,10.81
2022-10-26T16:00:59.850Z,11.00
2022-10-26T16:03:28.675Z,10.63
2022-10-26T16:06:02.619Z,10.93
2022-10-26T16:08:32.215Z,10.82
2022-10-26T16:11:00.142Z,10.83
2022-10-26T16:13:28.720Z,10.76
2022-10-26T16:15:57.341Z,10.68
2022-10-26T16:18:28.308Z,10.59
2022-10-26T16:20:56.623Z,10.54
2022-10-26T16:23:24.816Z,10.45
2022-10-26T16:25:54.137Z,9.92
2022-10-26T16:28:22.249Z,10.29
2022-10-26T16:30:50.397Z,9.90
2022-10-26T16:33:18.587Z,10.22
2022-10-26T16:35:58.229Z,9.90
2022-10-26T16:38:28.003Z,9.76
2022-10-26T16:43:59.032Z,9.64
2022-10-26T16:46:27.380Z,9.74
2022-10-26T16:49:02.225Z,9.71
2022-10-26T16:51:33.441Z,9.88
2022-10-26T16:54:01.706Z,9.81
2022-10-26T16:56:30.681Z,9.71
2022-10-26T16:58:59.064Z,9.40
2022-10-26T17:01:27.381Z,9.59
2022-10-26T17:03:56.235Z,9.57
2022-10-26T17:06:25.791Z,9.31
2022-10-26T17:08:53.626Z,9.15
2022-10-26T17:11:22.404Z,9.19
2022-10-26T17:13:55.179Z,9.18
2022-10-26T17:16:25.345Z,8.85
2022-10-26T17:18:54.513Z,8.98
2022-10-26T17:21:36.457Z,8.90
2022-10-26T17:24:04.760Z,8.72
2022-10-26T17:26:33.280Z,8.53
2022-10-26T17:29:01.990Z,8.42
2022-10-26T17:31:32.533Z,8.53
2022-10-26T17:34:00.534Z,8.54
2022-10-26T17:36:28.728Z,8.38
2022-10-26T17:38:57.706Z,8.38
2022-10-26T17:41:26.117Z,8.33
2022-10-26T17:43:54.462Z,8.38
2022-10-26T17:46:25.800Z,8.32
2022-10-26T17:48:57.245Z,8.34
2022-10-26T17:51:27.174Z,8.41
2022-10-26T17:53:59.808Z,8.35
2022-10-26T17:56:32.111Z,8.23
2022-10-26T17:59:04.682Z,7.91
2022-10-26T18:01:37.403Z,8.05
2022-10-26T18:04:05.729Z,7.90
2022-10-26T18:06:33.715Z,7.97
2022-10-26T18:09:01.839Z,7.68
2022-10-26T18:13:59.937Z,7.97
2022-10-26T18:16:29.068Z,7.83
2022-10-26T18:19:01.582Z,7.72
2022-10-26T18:21:32.904Z,7.84
2022-10-26T18:24:01.197Z,7.69
2022-10-26T18:26:31.012Z,7.60
2022-10-26T18:29:01.310Z,7.65
2022-10-26T18:31:32.130Z,7.37
2022-10-26T18:34:04.228Z,7.61
2022-10-26T18:36:33.418Z,7.41
2022-10-26T18:39:01.853Z,7.56
2022-10-26T18:41:30.156Z,7.57
2022-10-26T18:44:00.072Z,7.58
2022-10-26T18:46:32.076Z,7.57
2022-10-26T18:49:01.175Z,7.53
2022-10-26T18:51:34.537Z,7.50
2022-10-26T18:54:03.060Z,7.56
2022-10-26T18:56:31.537Z,7.65
2022-10-26T18:59:01.243Z,7.56
2022-10-26T19:01:36.614Z,7.53
2022-10-26T19:04:09.522Z,7.28
2022-10-26T19:06:47.720Z,7.55
2022-10-26T19:09:19.334Z,7.51
2022-10-26T19:11:48.439Z,7.04
2022-10-26T19:14:19.712Z,7.09
2022-10-26T19:16:51.974Z,7.30
2022-10-26T19:19:21.143Z,7.33
2022-10-26T19:21:50.580Z,7.19
2022-10-26T19:24:24.048Z,7.43
2022-10-26T19:26:54.527Z,7.45
2022-10-26T19:29:23.137Z,7.48
2022-10-26T19:31:53.501Z,7.42
2022-10-26T19:34:22.125Z,7.40
2022-10-26T19:36:50.264Z,7.33
2022-10-26T19:39:19.278Z,7.26
2022-10-26T19:41:47.780Z,7.21
2022-10-26T19:45:37.369Z,7.22
2022-10-26T19:48:05.876Z,7.20
2022-10-26T19:50:34.018Z,7.14
2022-10-26T19:53:04.057Z,7.12
2022-10-26T19:55:32.557Z,7.05
2022-10-26T19:58:00.656Z,7.00
2022-10-26T20:00:35.976Z,6.93
2022-10-26T20:03:05.123Z,6.96
2022-10-26T20:05:33.619Z,6.71
2022-10-26T20:08:01.803Z,6.52
2022-10-26T20:10:34.412Z,6.40
2022-10-26T20:13:02.581Z,6.32
2022-10-26T20:15:37.907Z,6.60
2022-10-26T20:18:07.190Z,6.34
2022-10-26T20:20:38.102Z,6.09
2022-10-26T20:23:10.565Z,6.34
2022-10-26T20:25:50.731Z,6.07
2022-10-26T20:28:20.556Z,6.37
2022-10-26T20:30:50.037Z,6.36
2022-10-26T20:33:18.713Z,6.39
2022-10-26T20:35:47.692Z,6.42
2022-10-26T20:38:21.420Z,6.39
2022-10-26T20:41:02.659Z,6.38
2022-10-26T20:43:33.324Z,6.34
2022-10-26T20:46:01.924Z,6.36
2022-10-26T20:48:30.410Z,6.32
2022-10-26T20:51:08.144Z,5.96
2022-10-26T20:53:44.467Z,6.12
2022-10-26T20:56:26.515Z,6.12
2022-10-26T20:59:01.358Z,6.27
2022-10-26T21:01:32.604Z,6.29
2022-10-26T21:04:03.891Z,6.28
2022-10-26T21:06:40.356Z,6.21
2022-10-26T21:09:09.637Z,6.07
2022-10-26T21:11:37.685Z,6.08
2022-10-26T21:14:06.700Z,6.13
2022-10-26T21:16:34.556Z,6.03
2022-10-26T21:19:05.140Z,6.05
2022-10-26T21:21:33.291Z,5.81
2022-10-26T21:24:01.541Z,6.04
2022-10-26T21:26:30.173Z,6.01
2022-10-26T21:28:59.643Z,5.93
2022-10-26T21:31:27.721Z,5.96
2022-10-26T21:33:55.938Z,6.02
2022-10-26T21:36:26.706Z,5.77
2022-10-26T21:38:54.650Z,5.94
2022-10-26T21:44:03.374Z,5.78
2022-10-26T21:46:40.518Z,5.73
2022-10-26T21:49:10.447Z,5.68
2022-10-26T21:51:38.527Z,5.63
2022-10-26T21:54:06.678Z,5.31
2022-10-26T21:56:34.780Z,5.48
2022-10-26T21:59:03.065Z,5.48
2022-10-26T22:01:31.116Z,5.35
2022-10-26T22:03:59.167Z,5.43
2022-10-26T22:06:27.247Z,5.34
2022-10-26T22:08:55.206Z,5.30
2022-10-26T22:11:25.383Z,5.21
2022-10-26T22:13:53.809Z,5.11
2022-10-26T22:16:23.859Z,4.55
2022-10-26T22:18:55.289Z,5.03
2022-10-26T22:21:26.457Z,4.99
2022-10-26T22:23:55.104Z,4.86
2022-10-26T22:26:25.497Z,4.90
2022-10-26T22:28:56.455Z,4.86
2022-10-26T22:31:37.791Z,4.85
2022-10-26T22:34:13.657Z,4.57
2022-10-26T22:36:42.010Z,4.49
2022-10-26T22:39:10.010Z,4.73
2022-10-26T22:41:38.428Z,4.70
2022-10-26T22:44:07.209Z,4.78
2022-10-26T22:46:35.146Z,4.82
2022-10-26T22:49:03.705Z,4.81
2022-10-26T22:51:34.985Z,4.60
2022-10-26T22:54:04.715Z,4.64
2022-10-26T22:56:35.418Z,4.90
2022-10-26T22:59:05.237Z,4.78
2022-10-26T23:01:38.536Z,4.94
2022-10-26T23:04:06.599Z,4.98
2022-10-26T23:06:34.776Z,4.98
2022-10-26T23:09:03.027Z,4.84
2022-10-26T23:11:31.094Z,4.92
2022-10-26T23:14:01.619Z,4.94
2022-10-26T23:16:31.065Z,4.95
2022-10-26T23:18:59.806Z,4.69
2022-10-26T23:21:29.619Z,4.94
2022-10-26T23:23:58.722Z,4.97
2022-10-26T23:26:26.722Z,4.92
2022-10-26T23:28:54.852Z,4.97
2022-10-26T23:31:26.355Z,5.00
2022-10-26T23:33:56.495Z,4.83
2022-10-26T23:36:24.707Z,4.70
2022-10-26T23:38:53.134Z,5.18
2022-10-26T23:41:21.091Z,5.35
2022-10-26T23:43:49.198Z,4.88
2022-10-26T23:46:17.333Z,5.36
2022-10-26T23:48:45.547Z,5.36
2022-10-26T23:51:13.855Z,5.28
2022-10-26T23:53:41.819Z,5.26
2022-10-26T23:56:09.723Z,5.00
2022-10-26T23:58:37.760Z,5.14
